sensor_id;sensor_type;location;lat;lon;timestamp;P1;durP1;ratioP1;P2;durP2;ratioP2
13866;SDS011;7003;46.982;15.248;2023-05-14T00:02:23;13.00;;;9.18;;
13866;SDS011;7003;46.982;15.248;2023-05-14T00:04:51;12.82;;;8.38;;
13866;SDS011;7003;46.982;15.248;2023-05-14T00:07:18;12.20;;;9.80;;
13866;SDS011;7003;46.982;15.248;2023-05-14T00:09:45;13.77;;;10.57;;
13866;SDS011;7003;46.982;15.248;2023-05-14T00:12:12;14.18;;;10.95;;
13866;SDS011;7003;46.982;15.248;2023-05-14T00:14:39;15.13;;;10.10;;
13866;SDS011;7003;46.982;15.248;2023-05-14T00:17:08;17.13;;;11.40;;
13866;SDS011;7003;46.982;15.248;2023-05-14T00:19:35;14.75;;;10.93;;
13866;SDS011;7003;46.982;15.248;2023-05-14T00:22:06;13.55;;;10.25;;
13866;SDS011;7003;46.982;15.248;2023-05-14T00:24:33;16.23;;;12.77;;
13866;SDS011;7003;46.982;15.248;2023-05-14T00:27:00;14.30;;;10.27;;
13866;SDS011;7003;46.982;15.248;2023-05-14T00:29:30;13.13;;;10.23;;
13866;SDS011;7003;46.982;15.248;2023-05-14T00:31:59;19.05;;;12.07;;
13866;SDS011;7003;46.982;15.248;2023-05-14T00:34:27;17.27;;;11.00;;
13866;SDS011;7003;46.982;15.248;2023-05-14T00:36:57;15.23;;;10.07;;
13866;SDS011;7003;46.982;15.248;2023-05-14T00:39:24;13.32;;;11.23;;
13866;SDS011;7003;46.982;15.248;2023-05-14T00:41:51;17.23;;;12.00;;
13866;SDS011;7003;46.982;15.248;2023-05-14T00:44:20;17.08;;;10.70;;
13866;SDS011;7003;46.982;15.248;2023-05-14T00:46:47;12.15;;;10.85;;
13866;SDS011;7003;46.982;15.248;2023-05-14T00:49:15;13.38;;;10.13;;
13866;SDS011;7003;46.982;15.248;2023-05-14T00:51:44;14.52;;;10.05;;
13866;SDS011;7003;46.982;15.248;2023-05-14T00:54:12;14.93;;;9.85;;
13866;SDS011;7003;46.982;15.248;2023-05-14T00:56:39;11.88;;;10.55;;
13866;SDS011;7003;46.982;15.248;2023-05-14T00:59:09;14.35;;;10.95;;
13866;SDS011;7003;46.982;15.248;2023-05-14T01:01:36;10.95;;;9.45;;
13866;SDS011;7003;46.982;15.248;2023-05-14T01:04:11;15.82;;;10.23;;
13866;SDS011;7003;46.982;15.248;2023-05-14T01:06:46;17.30;;;10.30;;
13866;SDS011;7003;46.982;15.248;2023-05-14T01:09:25;12.60;;;11.13;;
13866;SDS011;7003;46.982;15.248;2023-05-14T01:12:13;11.20;;;9.30;;
13866;SDS011;7003;46.982;15.248;2023-05-14T01:14:51;15.32;;;9.60;;
13866;SDS011;7003;46.982;15.248;2023-05-14T01:17:24;13.55;;;9.95;;
13866;SDS011;7003;46.982;15.248;2023-05-14T01:19:53;13.55;;;9.98;;
13866;SDS011;7003;46.982;15.248;2023-05-14T01:22:22;14.20;;;10.13;;
13866;SDS011;7003;46.982;15.248;2023-05-14T01:24:49;12.60;;;9.30;;
13866;SDS011;7003;46.982;15.248;2023-05-14T01:27:20;15.48;;;11.57;;
13866;SDS011;7003;46.982;15.248;2023-05-14T01:29:56;14.95;;;9.95;;
13866;SDS011;7003;46.982;15.248;2023-05-14T01:32:31;12.52;;;8.98;;
13866;SDS011;7003;46.982;15.248;2023-05-14T01:35:01;14.88;;;10.63;;
13866;SDS011;7003;46.982;15.248;2023-05-14T01:37:31;14.15;;;9.77;;
13866;SDS011;7003;46.982;15.248;2023-05-14T01:40:00;11.45;;;9.38;;
13866;SDS011;7003;46.982;15.248;2023-05-14T01:42:32;14.25;;;9.85;;
13866;SDS011;7003;46.982;15.248;2023-05-14T01:45:02;15.38;;;10.05;;
13866;SDS011;7003;46.982;15.248;2023-05-14T01:47:30;12.65;;;9.43;;
13866;SDS011;7003;46.982;15.248;2023-05-14T01:50:09;13.25;;;8.57;;
13866;SDS011;7003;46.982;15.248;2023-05-14T01:52:45;11.57;;;8.82;;
13866;SDS011;7003;46.982;15.248;2023-05-14T01:55:25;11.60;;;10.10;;
13866;SDS011;7003;46.982;15.248;2023-05-14T01:58:03;10.98;;;9.43;;
13866;SDS011;7003;46.982;15.248;2023-05-14T02:00:40;14.70;;;9.65;;
13866;SDS011;7003;46.982;15.248;2023-05-14T02:03:10;13.40;;;10.93;;
13866;SDS011;7003;46.982;15.248;2023-05-14T02:05:37;14.73;;;9.73;;
13866;SDS011;7003;46.982;15.248;2023-05-14T02:08:06;9.07;;;7.60;;
13866;SDS011;7003;46.982;15.248;2023-05-14T02:10:33;16.05;;;9.57;;
13866;SDS011;7003;46.982;15.248;2023-05-14T02:13:01;13.60;;;9.50;;
13866;SDS011;7003;46.982;15.248;2023-05-14T02:15:31;12.20;;;9.05;;
13866;SDS011;7003;46.982;15.248;2023-05-14T02:17:58;13.60;;;10.15;;
13866;SDS011;7003;46.982;15.248;2023-05-14T02:20:25;12.15;;;8.65;;
13866;SDS011;7003;46.982;15.248;2023-05-14T02:22:55;12.82;;;9.18;;
13866;SDS011;7003;46.982;15.248;2023-05-14T02:25:23;10.27;;;8.70;;
13866;SDS011;7003;46.982;15.248;2023-05-14T02:27:50;12.75;;;9.52;;
13866;SDS011;7003;46.982;15.248;2023-05-14T02:30:20;10.27;;;8.38;;
13866;SDS011;7003;46.982;15.248;2023-05-14T02:32:47;11.88;;;7.80;;
13866;SDS011;7003;46.982;15.248;2023-05-14T02:35:16;16.05;;;9.38;;
13866;SDS011;7003;46.982;15.248;2023-05-14T02:37:44;12.02;;;9.05;;
13866;SDS011;7003;46.982;15.248;2023-05-14T02:40:13;9.98;;;7.70;;
13866;SDS011;7003;46.982;15.248;2023-05-14T02:42:42;13.57;;;10.30;;
13866;SDS011;7003;46.982;15.248;2023-05-14T02:45:09;8.75;;;6.85;;
13866;SDS011;7003;46.982;15.248;2023-05-14T02:47:36;8.50;;;6.97;;
13866;SDS011;7003;46.982;15.248;2023-05-14T02:50:04;10.90;;;8.07;;
13866;SDS011;7003;46.982;15.248;2023-05-14T02:52:32;8.68;;;7.78;;
13866;SDS011;7003;46.982;15.248;2023-05-14T02:54:59;13.50;;;7.97;;
13866;SDS011;7003;46.982;15.248;2023-05-14T02:57:27;10.18;;;7.43;;
13866;SDS011;7003;46.982;15.248;2023-05-14T02:59:55;10.15;;;7.72;;
13866;SDS011;7003;46.982;15.248;2023-05-14T03:02:22;17.77;;;8.73;;
13866;SDS011;7003;46.982;15.248;2023-05-14T03:04:49;14.68;;;8.50;;
13866;SDS011;7003;46.982;15.248;2023-05-14T03:07:16;10.00;;;8.43;;
13866;SDS011;7003;46.982;15.248;2023-05-14T03:09:45;10.27;;;7.88;;
13866;SDS011;7003;46.982;15.248;2023-05-14T03:12:15;11.40;;;9.75;;
13866;SDS011;7003;46.982;15.248;2023-05-14T03:14:42;14.95;;;11.00;;
13866;SDS011;7003;46.982;15.248;2023-05-14T03:17:11;13.40;;;9.48;;
13866;SDS011;7003;46.982;15.248;2023-05-14T03:19:40;12.73;;;10.80;;
13866;SDS011;7003;46.982;15.248;2023-05-14T03:22:10;17.25;;;10.02;;
13866;SDS011;7003;46.982;15.248;2023-05-14T03:24:39;10.27;;;9.15;;
13866;SDS011;7003;46.982;15.248;2023-05-14T03:27:09;12.13;;;9.15;;
13866;SDS011;7003;46.982;15.248;2023-05-14T03:29:36;12.75;;;11.27;;
13866;SDS011;7003;46.982;15.248;2023-05-14T03:32:06;12.23;;;10.68;;
13866;SDS011;7003;46.982;15.248;2023-05-14T03:34:37;13.30;;;11.57;;
13866;SDS011;7003;46.982;15.248;2023-05-14T03:37:07;18.33;;;12.73;;
13866;SDS011;7003;46.982;15.248;2023-05-14T03:39:36;14.48;;;12.60;;
13866;SDS011;7003;46.982;15.248;2023-05-14T03:42:06;12.10;;;10.60;;
13866;SDS011;7003;46.982;15.248;2023-05-14T03:44:33;15.60;;;11.52;;
13866;SDS011;7003;46.982;15.248;2023-05-14T03:47:01;15.88;;;12.45;;
13866;SDS011;7003;46.982;15.248;2023-05-14T03:49:31;14.18;;;11.55;;
13866;SDS011;7003;46.982;15.248;2023-05-14T03:52:00;19.70;;;13.93;;
13866;SDS011;7003;46.982;15.248;2023-05-14T03:54:30;16.00;;;12.38;;
13866;SDS011;7003;46.982;15.248;2023-05-14T03:56:59;18.83;;;12.15;;
13866;SDS011;7003;46.982;15.248;2023-05-14T03:59:30;13.40;;;11.35;;
13866;SDS011;7003;46.982;15.248;2023-05-14T04:01:57;14.23;;;12.25;;
13866;SDS011;7003;46.982;15.248;2023-05-14T04:04:25;16.88;;;12.25;;
13866;SDS011;7003;46.982;15.248;2023-05-14T04:06:55;16.58;;;12.43;;
13866;SDS011;7003;46.982;15.248;2023-05-14T04:09:24;16.17;;;12.07;;
13866;SDS011;7003;46.982;15.248;2023-05-14T04:11:51;17.85;;;11.18;;
13866;SDS011;7003;46.982;15.248;2023-05-14T04:14:21;16.67;;;12.77;;
13866;SDS011;7003;46.982;15.248;2023-05-14T04:16:49;17.25;;;10.85;;
13866;SDS011;7003;46.982;15.248;2023-05-14T04:19:19;16.15;;;11.90;;
13866;SDS011;7003;46.982;15.248;2023-05-14T04:21:47;20.13;;;12.60;;
13866;SDS011;7003;46.982;15.248;2023-05-14T04:24:17;14.75;;;12.30;;
13866;SDS011;7003;46.982;15.248;2023-05-14T04:26:46;13.75;;;10.77;;
13866;SDS011;7003;46.982;15.248;2023-05-14T04:29:17;14.05;;;12.23;;
13866;SDS011;7003;46.982;15.248;2023-05-14T04:31:47;19.58;;;10.50;;
13866;SDS011;7003;46.982;15.248;2023-05-14T04:34:15;13.13;;;11.65;;
13866;SDS011;7003;46.982;15.248;2023-05-14T04:36:43;13.15;;;10.73;;
13866;SDS011;7003;46.982;15.248;2023-05-14T04:39:11;13.15;;;10.68;;
13866;SDS011;7003;46.982;15.248;2023-05-14T04:41:41;13.32;;;11.82;;
13866;SDS011;7003;46.982;15.248;2023-05-14T04:44:13;23.75;;;10.88;;
13866;SDS011;7003;46.982;15.248;2023-05-14T04:46:41;17.42;;;11.50;;
13866;SDS011;7003;46.982;15.248;2023-05-14T04:49:09;12.55;;;10.55;;
13866;SDS011;7003;46.982;15.248;2023-05-14T04:51:36;17.80;;;10.07;;
13866;SDS011;7003;46.982;15.248;2023-05-14T04:54:04;13.77;;;12.20;;
13866;SDS011;7003;46.982;15.248;2023-05-14T04:56:35;16.20;;;11.13;;
13866;SDS011;7003;46.982;15.248;2023-05-14T04:59:04;13.63;;;10.65;;
13866;SDS011;7003;46.982;15.248;2023-05-14T05:01:37;15.30;;;11.48;;
13866;SDS011;7003;46.982;15.248;2023-05-14T05:04:12;13.85;;;9.85;;
13866;SDS011;7003;46.982;15.248;2023-05-14T05:06:40;14.32;;;10.68;;
13866;SDS011;7003;46.982;15.248;2023-05-14T05:09:09;14.15;;;11.43;;
13866;SDS011;7003;46.982;15.248;2023-05-14T05:11:40;16.17;;;11.13;;
13866;SDS011;7003;46.982;15.248;2023-05-14T05:14:07;12.43;;;10.60;;
13866;SDS011;7003;46.982;15.248;2023-05-14T05:16:37;13.15;;;10.25;;
13866;SDS011;7003;46.982;15.248;2023-05-14T05:19:07;14.73;;;10.15;;
13866;SDS011;7003;46.982;15.248;2023-05-14T05:21:35;17.70;;;13.25;;
13866;SDS011;7003;46.982;15.248;2023-05-14T05:24:04;16.75;;;11.65;;
13866;SDS011;7003;46.982;15.248;2023-05-14T05:26:35;14.48;;;11.35;;
13866;SDS011;7003;46.982;15.248;2023-05-14T05:29:02;11.70;;;9.93;;
13866;SDS011;7003;46.982;15.248;2023-05-14T05:31:31;11.65;;;9.57;;
13866;SDS011;7003;46.982;15.248;2023-05-14T05:34:00;17.45;;;9.13;;
13866;SDS011;7003;46.982;15.248;2023-05-14T05:36:28;12.02;;;9.57;;
13866;SDS011;7003;46.982;15.248;2023-05-14T05:38:59;10.27;;;8.55;;
13866;SDS011;7003;46.982;15.248;2023-05-14T05:41:26;9.13;;;8.18;;
13866;SDS011;7003;46.982;15.248;2023-05-14T05:43:54;11.07;;;9.32;;
13866;SDS011;7003;46.982;15.248;2023-05-14T05:46:22;11.13;;;9.10;;
13866;SDS011;7003;46.982;15.248;2023-05-14T05:48:49;10.57;;;8.85;;
13866;SDS011;7003;46.982;15.248;2023-05-14T05:51:19;11.48;;;9.38;;
13866;SDS011;7003;46.982;15.248;2023-05-14T05:53:46;13.23;;;9.65;;
13866;SDS011;7003;46.982;15.248;2023-05-14T05:56:14;13.88;;;9.02;;
13866;SDS011;7003;46.982;15.248;2023-05-14T05:58:43;12.80;;;9.48;;
13866;SDS011;7003;46.982;15.248;2023-05-14T06:01:11;13.50;;;8.60;;
13866;SDS011;7003;46.982;15.248;2023-05-14T06:03:40;10.88;;;9.70;;
13866;SDS011;7003;46.982;15.248;2023-05-14T06:06:11;8.88;;;7.70;;
13866;SDS011;7003;46.982;15.248;2023-05-14T06:08:39;8.98;;;7.40;;
13866;SDS011;7003;46.982;15.248;2023-05-14T06:11:09;9.73;;;8.65;;
13866;SDS011;7003;46.982;15.248;2023-05-14T06:13:37;11.57;;;8.52;;
13866;SDS011;7003;46.982;15.248;2023-05-14T06:16:05;9.52;;;8.60;;
13866;SDS011;7003;46.982;15.248;2023-05-14T06:18:32;10.63;;;9.63;;
13866;SDS011;7003;46.982;15.248;2023-05-14T06:21:02;12.23;;;10.20;;
13866;SDS011;7003;46.982;15.248;2023-05-14T06:23:32;14.75;;;8.40;;
13866;SDS011;7003;46.982;15.248;2023-05-14T06:26:03;10.43;;;8.85;;
13866;SDS011;7003;46.982;15.248;2023-05-14T06:28:31;10.05;;;7.97;;
13866;SDS011;7003;46.982;15.248;2023-05-14T06:30:58;9.73;;;8.00;;
13866;SDS011;7003;46.982;15.248;2023-05-14T06:33:26;8.98;;;7.63;;
13866;SDS011;7003;46.982;15.248;2023-05-14T06:35:58;10.05;;;7.75;;
13866;SDS011;7003;46.982;15.248;2023-05-14T06:38:26;9.93;;;8.40;;
13866;SDS011;7003;46.982;15.248;2023-05-14T06:40:56;10.45;;;8.10;;
13866;SDS011;7003;46.982;15.248;2023-05-14T06:43:25;10.70;;;9.05;;
13866;SDS011;7003;46.982;15.248;2023-05-14T06:45:53;10.57;;;8.90;;
13866;SDS011;7003;46.982;15.248;2023-05-14T06:48:22;16.88;;;7.82;;
13866;SDS011;7003;46.982;15.248;2023-05-14T06:50:54;9.77;;;7.72;;
13866;SDS011;7003;46.982;15.248;2023-05-14T06:53:22;9.27;;;7.15;;
13866;SDS011;7003;46.982;15.248;2023-05-14T06:55:49;12.10;;;9.43;;
13866;SDS011;7003;46.982;15.248;2023-05-14T06:58:19;8.57;;;7.75;;
13866;SDS011;7003;46.982;15.248;2023-05-14T07:00:48;11.18;;;8.60;;
13866;SDS011;7003;46.982;15.248;2023-05-14T07:03:15;10.65;;;7.65;;
13866;SDS011;7003;46.982;15.248;2023-05-14T07:05:45;9.55;;;7.82;;
13866;SDS011;7003;46.982;15.248;2023-05-14T07:08:12;9.23;;;8.00;;
13866;SDS011;7003;46.982;15.248;2023-05-14T07:10:42;9.18;;;8.05;;
13866;SDS011;7003;46.982;15.248;2023-05-14T07:13:10;7.43;;;6.60;;
13866;SDS011;7003;46.982;15.248;2023-05-14T07:15:40;9.27;;;8.35;;
13866;SDS011;7003;46.982;15.248;2023-05-14T07:18:08;9.68;;;8.48;;
13866;SDS011;7003;46.982;15.248;2023-05-14T07:20:36;7.85;;;6.85;;
13866;SDS011;7003;46.982;15.248;2023-05-14T07:23:03;9.40;;;8.50;;
13866;SDS011;7003;46.982;15.248;2023-05-14T07:25:31;8.85;;;7.95;;
13866;SDS011;7003;46.982;15.248;2023-05-14T07:28:01;8.48;;;7.68;;
13866;SDS011;7003;46.982;15.248;2023-05-14T07:30:29;8.80;;;7.53;;
13866;SDS011;7003;46.982;15.248;2023-05-14T07:32:56;11.98;;;9.00;;
13866;SDS011;7003;46.982;15.248;2023-05-14T07:35:27;9.05;;;6.70;;
13866;SDS011;7003;46.982;15.248;2023-05-14T07:37:55;8.30;;;7.50;;
13866;SDS011;7003;46.982;15.248;2023-05-14T07:40:25;7.80;;;6.90;;
13866;SDS011;7003;46.982;15.248;2023-05-14T07:42:52;9.52;;;6.45;;
13866;SDS011;7003;46.982;15.248;2023-05-14T07:45:20;9.63;;;6.40;;
13866;SDS011;7003;46.982;15.248;2023-05-14T07:47:48;8.68;;;7.78;;
13866;SDS011;7003;46.982;15.248;2023-05-14T07:50:16;8.70;;;7.88;;
13866;SDS011;7003;46.982;15.248;2023-05-14T07:52:47;7.85;;;6.32;;
13866;SDS011;7003;46.982;15.248;2023-05-14T07:55:15;7.18;;;6.47;;
13866;SDS011;7003;46.982;15.248;2023-05-14T07:57:43;7.15;;;6.35;;
13866;SDS011;7003;46.982;15.248;2023-05-14T08:00:13;7.43;;;6.63;;
13866;SDS011;7003;46.982;15.248;2023-05-14T08:02:41;6.60;;;5.93;;
13866;SDS011;7003;46.982;15.248;2023-05-14T08:05:10;8.85;;;7.28;;
13866;SDS011;7003;46.982;15.248;2023-05-14T08:07:39;7.25;;;6.53;;
13866;SDS011;7003;46.982;15.248;2023-05-14T08:10:11;18.42;;;11.98;;
13866;SDS011;7003;46.982;15.248;2023-05-14T08:12:39;17.00;;;10.73;;
13866;SDS011;7003;46.982;15.248;2023-05-14T08:15:07;8.43;;;7.03;;
13866;SDS011;7003;46.982;15.248;2023-05-14T08:17:35;7.82;;;7.03;;
13866;SDS011;7003;46.982;15.248;2023-05-14T08:20:03;8.02;;;6.90;;
13866;SDS011;7003;46.982;15.248;2023-05-14T08:22:35;9.15;;;8.15;;
13866;SDS011;7003;46.982;15.248;2023-05-14T08:25:02;10.82;;;6.85;;
13866;SDS011;7003;46.982;15.248;2023-05-14T08:27:35;10.65;;;8.68;;
13866;SDS011;7003;46.982;15.248;2023-05-14T08:30:05;7.75;;;6.40;;
13866;SDS011;7003;46.982;15.248;2023-05-14T08:32:35;7.78;;;7.03;;
13866;SDS011;7003;46.982;15.248;2023-05-14T08:35:06;9.02;;;6.25;;
13866;SDS011;7003;46.982;15.248;2023-05-14T08:37:34;7.15;;;6.15;;
13866;SDS011;7003;46.982;15.248;2023-05-14T08:40:02;6.40;;;5.43;;
13866;SDS011;7003;46.982;15.248;2023-05-14T08:42:33;6.03;;;5.43;;
13866;SDS011;7003;46.982;15.248;2023-05-14T08:45:05;8.45;;;4.43;;
13866;SDS011;7003;46.982;15.248;2023-05-14T08:47:42;5.63;;;5.03;;
13866;SDS011;7003;46.982;15.248;2023-05-14T08:50:13;7.60;;;5.82;;
13866;SDS011;7003;46.982;15.248;2023-05-14T08:52:43;6.03;;;5.32;;
13866;SDS011;7003;46.982;15.248;2023-05-14T08:55:11;5.95;;;5.00;;
13866;SDS011;7003;46.982;15.248;2023-05-14T08:57:43;4.53;;;4.13;;
13866;SDS011;7003;46.982;15.248;2023-05-14T09:00:12;4.03;;;3.28;;
13866;SDS011;7003;46.982;15.248;2023-05-14T09:02:43;5.55;;;3.63;;
13866;SDS011;7003;46.982;15.248;2023-05-14T09:05:12;3.22;;;3.03;;
13866;SDS011;7003;46.982;15.248;2023-05-14T09:07:45;3.83;;;3.47;;
13866;SDS011;7003;46.982;15.248;2023-05-14T09:10:13;3.38;;;3.08;;
13866;SDS011;7003;46.982;15.248;2023-05-14T09:12:41;4.05;;;3.10;;
13866;SDS011;7003;46.982;15.248;2023-05-14T09:15:12;3.25;;;2.95;;
13866;SDS011;7003;46.982;15.248;2023-05-14T09:17:42;2.72;;;2.50;;
13866;SDS011;7003;46.982;15.248;2023-05-14T09:20:11;2.17;;;1.98;;
13866;SDS011;7003;46.982;15.248;2023-05-14T09:22:39;2.20;;;2.00;;
13866;SDS011;7003;46.982;15.248;2023-05-14T09:25:07;2.20;;;1.80;;
13866;SDS011;7003;46.982;15.248;2023-05-14T09:27:36;2.35;;;2.15;;
13866;SDS011;7003;46.982;15.248;2023-05-14T09:30:05;1.70;;;1.60;;
13866;SDS011;7003;46.982;15.248;2023-05-14T09:32:39;2.55;;;2.35;;
13866;SDS011;7003;46.982;15.248;2023-05-14T09:35:11;2.08;;;1.90;;
13866;SDS011;7003;46.982;15.248;2023-05-14T09:37:42;2.65;;;2.45;;
13866;SDS011;7003;46.982;15.248;2023-05-14T09:40:11;7.68;;;4.22;;
13866;SDS011;7003;46.982;15.248;2023-05-14T09:42:39;3.50;;;3.22;;
13866;SDS011;7003;46.982;15.248;2023-05-14T09:45:07;11.30;;;6.38;;
13866;SDS011;7003;46.982;15.248;2023-05-14T09:47:35;4.85;;;3.53;;
13866;SDS011;7003;46.982;15.248;2023-05-14T09:50:06;4.82;;;3.55;;
13866;SDS011;7003;46.982;15.248;2023-05-14T09:52:34;3.53;;;3.10;;
13866;SDS011;7003;46.982;15.248;2023-05-14T09:55:03;2.78;;;2.25;;
13866;SDS011;7003;46.982;15.248;2023-05-14T09:57:33;2.60;;;2.40;;
13866;SDS011;7003;46.982;15.248;2023-05-14T10:00:01;2.75;;;1.88;;
13866;SDS011;7003;46.982;15.248;2023-05-14T10:02:30;2.40;;;2.25;;
13866;SDS011;7003;46.982;15.248;2023-05-14T10:05:06;4.45;;;2.17;;
13866;SDS011;7003;46.982;15.248;2023-05-14T10:07:35;1.83;;;1.67;;
13866;SDS011;7003;46.982;15.248;2023-05-14T10:10:07;1.95;;;1.85;;
13866;SDS011;7003;46.982;15.248;2023-05-14T10:12:41;2.20;;;2.00;;
13866;SDS011;7003;46.982;15.248;2023-05-14T10:15:15;2.42;;;2.20;;
13866;SDS011;7003;46.982;15.248;2023-05-14T10:17:47;2.13;;;1.92;;
13866;SDS011;7003;46.982;15.248;2023-05-14T10:20:20;2.00;;;1.80;;
13866;SDS011;7003;46.982;15.248;2023-05-14T10:22:51;1.52;;;1.38;;
13866;SDS011;7003;46.982;15.248;2023-05-14T10:25:22;1.52;;;1.40;;
13866;SDS011;7003;46.982;15.248;2023-05-14T10:27:50;1.50;;;1.40;;
13866;SDS011;7003;46.982;15.248;2023-05-14T10:30:20;1.65;;;1.55;;
13866;SDS011;7003;46.982;15.248;2023-05-14T10:32:48;2.17;;;1.95;;
13866;SDS011;7003;46.982;15.248;2023-05-14T10:35:54;3.72;;;1.55;;
13866;SDS011;7003;46.982;15.248;2023-05-14T10:38:27;2.03;;;1.75;;
13866;SDS011;7003;46.982;15.248;2023-05-14T10:40:56;2.05;;;1.73;;
13866;SDS011;7003;46.982;15.248;2023-05-14T10:43:26;1.48;;;1.38;;
13866;SDS011;7003;46.982;15.248;2023-05-14T10:45:56;1.98;;;1.77;;
13866;SDS011;7003;46.982;15.248;2023-05-14T10:48:27;1.15;;;1.05;;
13866;SDS011;7003;46.982;15.248;2023-05-14T10:50:57;1.80;;;1.50;;
13866;SDS011;7003;46.982;15.248;2023-05-14T10:53:30;3.20;;;1.92;;
13866;SDS011;7003;46.982;15.248;2023-05-14T10:56:04;2.38;;;2.17;;
13866;SDS011;7003;46.982;15.248;2023-05-14T10:58:34;1.48;;;1.38;;
13866;SDS011;7003;46.982;15.248;2023-05-14T11:01:04;1.65;;;1.55;;
13866;SDS011;7003;46.982;15.248;2023-05-14T11:03:38;1.25;;;1.15;;
13866;SDS011;7003;46.982;15.248;2023-05-14T11:06:10;1.98;;;1.75;;
13866;SDS011;7003;46.982;15.248;2023-05-14T11:08:40;2.15;;;1.95;;
13866;SDS011;7003;46.982;15.248;2023-05-14T11:11:11;1.67;;;1.58;;
13866;SDS011;7003;46.982;15.248;2023-05-14T11:13:39;2.25;;;2.03;;
13866;SDS011;7003;46.982;15.248;2023-05-14T11:16:09;1.67;;;1.58;;
13866;SDS011;7003;46.982;15.248;2023-05-14T11:18:45;2.92;;;2.65;;
13866;SDS011;7003;46.982;15.248;2023-05-14T11:21:17;1.95;;;1.85;;
13866;SDS011;7003;46.982;15.248;2023-05-14T11:23:48;2.60;;;1.98;;
13866;SDS011;7003;46.982;15.248;2023-05-14T11:26:16;2.50;;;2.30;;
13866;SDS011;7003;46.982;15.248;2023-05-14T11:28:45;2.25;;;2.05;;
13866;SDS011;7003;46.982;15.248;2023-05-14T11:31:15;1.52;;;1.42;;
13866;SDS011;7003;46.982;15.248;2023-05-14T11:33:43;2.42;;;2.22;;
13866;SDS011;7003;46.982;15.248;2023-05-14T11:36:11;3.05;;;1.92;;
13866;SDS011;7003;46.982;15.248;2023-05-14T11:38:46;1.50;;;1.40;;
13866;SDS011;7003;46.982;15.248;2023-05-14T11:41:16;1.55;;;1.45;;
13866;SDS011;7003;46.982;15.248;2023-05-14T11:43:46;1.30;;;1.20;;
13866;SDS011;7003;46.982;15.248;2023-05-14T11:46:17;1.83;;;1.50;;
13866;SDS011;7003;46.982;15.248;2023-05-14T11:48:47;1.40;;;1.30;;
13866;SDS011;7003;46.982;15.248;2023-05-14T11:51:15;1.10;;;1.00;;
13866;SDS011;7003;46.982;15.248;2023-05-14T11:53:48;1.35;;;1.10;;
13866;SDS011;7003;46.982;15.248;2023-05-14T11:56:16;1.13;;;1.02;;
13866;SDS011;7003;46.982;15.248;2023-05-14T11:58:46;3.78;;;3.33;;
13866;SDS011;7003;46.982;15.248;2023-05-14T12:01:15;2.13;;;2.00;;
13866;SDS011;7003;46.982;15.248;2023-05-14T12:03:43;1.55;;;1.10;;
13866;SDS011;7003;46.982;15.248;2023-05-14T12:06:13;0.60;;;0.60;;
13866;SDS011;7003;46.982;15.248;2023-05-14T12:08:41;1.35;;;1.10;;
13866;SDS011;7003;46.982;15.248;2023-05-14T12:11:10;0.95;;;0.95;;
13866;SDS011;7003;46.982;15.248;2023-05-14T12:13:38;1.63;;;1.52;;
13866;SDS011;7003;46.982;15.248;2023-05-14T12:16:09;2.42;;;2.22;;
13866;SDS011;7003;46.982;15.248;2023-05-14T12:18:40;1.20;;;1.15;;
13866;SDS011;7003;46.982;15.248;2023-05-14T12:21:09;1.15;;;1.05;;
13866;SDS011;7003;46.982;15.248;2023-05-14T12:23:37;1.42;;;1.00;;
13866;SDS011;7003;46.982;15.248;2023-05-14T12:26:05;1.40;;;1.23;;
13866;SDS011;7003;46.982;15.248;2023-05-14T12:28:39;1.15;;;1.08;;
13866;SDS011;7003;46.982;15.248;2023-05-14T12:31:08;1.20;;;1.10;;
13866;SDS011;7003;46.982;15.248;2023-05-14T12:33:36;1.15;;;1.05;;
13866;SDS011;7003;46.982;15.248;2023-05-14T12:36:04;1.23;;;0.80;;
13866;SDS011;7003;46.982;15.248;2023-05-14T12:38:31;0.70;;;0.70;;
13866;SDS011;7003;46.982;15.248;2023-05-14T12:41:03;0.98;;;0.90;;
13866;SDS011;7003;46.982;15.248;2023-05-14T12:43:33;0.85;;;0.85;;
13866;SDS011;7003;46.982;15.248;2023-05-14T12:46:03;0.85;;;0.85;;
13866;SDS011;7003;46.982;15.248;2023-05-14T12:48:31;1.25;;;0.70;;
13866;SDS011;7003;46.982;15.248;2023-05-14T12:50:58;3.78;;;1.45;;
13866;SDS011;7003;46.982;15.248;2023-05-14T12:53:29;1.08;;;0.98;;
13866;SDS011;7003;46.982;15.248;2023-05-14T12:55:59;0.65;;;0.65;;
13866;SDS011;7003;46.982;15.248;2023-05-14T12:58:29;4.47;;;0.77;;
13866;SDS011;7003;46.982;15.248;2023-05-14T13:00:57;1.48;;;1.02;;
13866;SDS011;7003;46.982;15.248;2023-05-14T13:03:27;0.73;;;0.70;;
13866;SDS011;7003;46.982;15.248;2023-05-14T13:05:55;0.50;;;0.50;;
13866;SDS011;7003;46.982;15.248;2023-05-14T13:08:23;0.80;;;0.80;;
13866;SDS011;7003;46.982;15.248;2023-05-14T13:10:51;1.05;;;0.95;;
13866;SDS011;7003;46.982;15.248;2023-05-14T13:13:19;1.05;;;1.05;;
13866;SDS011;7003;46.982;15.248;2023-05-14T13:15:49;0.60;;;0.60;;
13866;SDS011;7003;46.982;15.248;2023-05-14T13:18:18;1.10;;;1.08;;
13866;SDS011;7003;46.982;15.248;2023-05-14T13:20:47;0.85;;;0.80;;
13866;SDS011;7003;46.982;15.248;2023-05-14T13:23:17;1.35;;;1.05;;
13866;SDS011;7003;46.982;15.248;2023-05-14T13:25:47;0.63;;;0.63;;
13866;SDS011;7003;46.982;15.248;2023-05-14T13:28:17;0.50;;;0.40;;
13866;SDS011;7003;46.982;15.248;2023-05-14T13:31:02;0.73;;;0.73;;
13866;SDS011;7003;46.982;15.248;2023-05-14T13:33:31;0.70;;;0.70;;
13866;SDS011;7003;46.982;15.248;2023-05-14T13:36:04;0.55;;;0.55;;
13866;SDS011;7003;46.982;15.248;2023-05-14T13:38:32;1.20;;;0.93;;
13866;SDS011;7003;46.982;15.248;2023-05-14T13:41:00;0.30;;;0.30;;
13866;SDS011;7003;46.982;15.248;2023-05-14T13:43:30;0.57;;;0.57;;
13866;SDS011;7003;46.982;15.248;2023-05-14T13:45:59;0.75;;;0.65;;
13866;SDS011;7003;46.982;15.248;2023-05-14T13:48:29;0.65;;;0.65;;
13866;SDS011;7003;46.982;15.248;2023-05-14T13:50:57;0.82;;;0.82;;
13866;SDS011;7003;46.982;15.248;2023-05-14T13:53:29;2.38;;;0.93;;
13866;SDS011;7003;46.982;15.248;2023-05-14T13:55:56;0.70;;;0.70;;
13866;SDS011;7003;46.982;15.248;2023-05-14T13:58:27;0.90;;;0.73;;
13866;SDS011;7003;46.982;15.248;2023-05-14T14:00:55;0.65;;;0.65;;
13866;SDS011;7003;46.982;15.248;2023-05-14T14:03:25;0.70;;;0.70;;
13866;SDS011;7003;46.982;15.248;2023-05-14T14:05:55;1.27;;;0.93;;
13866;SDS011;7003;46.982;15.248;2023-05-14T14:08:23;0.60;;;0.50;;
13866;SDS011;7003;46.982;15.248;2023-05-14T14:10:52;0.60;;;0.60;;
13866;SDS011;7003;46.982;15.248;2023-05-14T14:13:20;0.60;;;0.60;;
13866;SDS011;7003;46.982;15.248;2023-05-14T14:15:49;1.75;;;0.95;;
13866;SDS011;7003;46.982;15.248;2023-05-14T14:18:16;0.60;;;0.60;;
13866;SDS011;7003;46.982;15.248;2023-05-14T14:20:47;0.50;;;0.50;;
13866;SDS011;7003;46.982;15.248;2023-05-14T14:23:17;0.80;;;0.50;;
13866;SDS011;7003;46.982;15.248;2023-05-14T14:25:46;0.60;;;0.60;;
13866;SDS011;7003;46.982;15.248;2023-05-14T14:28:17;0.35;;;0.32;;
13866;SDS011;7003;46.982;15.248;2023-05-14T14:30:45;0.60;;;0.60;;
13866;SDS011;7003;46.982;15.248;2023-05-14T14:33:18;0.60;;;0.60;;
13866;SDS011;7003;46.982;15.248;2023-05-14T14:35:45;1.15;;;1.05;;
13866;SDS011;7003;46.982;15.248;2023-05-14T14:38:18;0.63;;;0.57;;
13866;SDS011;7003;46.982;15.248;2023-05-14T14:40:46;1.05;;;0.95;;
13866;SDS011;7003;46.982;15.248;2023-05-14T14:43:14;0.70;;;0.70;;
13866;SDS011;7003;46.982;15.248;2023-05-14T14:45:46;0.82;;;0.68;;
13866;SDS011;7003;46.982;15.248;2023-05-14T14:48:21;0.80;;;0.80;;
13866;SDS011;7003;46.982;15.248;2023-05-14T14:50:53;0.75;;;0.75;;
13866;SDS011;7003;46.982;15.248;2023-05-14T14:53:22;1.60;;;1.38;;